Flight Track Log - Related Links

Times and Time Zones

All times are in EDT time to prevent confusion due to time zone crossing. See the CES2227 flight status page for this flight to view local times or setup timezone preferences in your user account.

Time Position Orientation Groundspeed Altitude Reporting Facility
EDT Latitude Longitude Course Direction KTS MPH feet Rate Location/Type
Sun 03:44:37 AM 31.1000 121.8090 160° South 171 197 2,400  Level FlightAware ADS-B
Sun 03:45:07 AM 31.0760 121.8180 162° South 171 197 2,900 1,309 Climbing FlightAware ADS-B
Sun 03:45:32 AM 31.0540 121.8260 163° South 220 253 3,600 2,400 Climbing FlightAware ADS-B
Sun 03:45:57 AM 31.0250 121.8370 162° South 235 270 4,900 2,914 Climbing FlightAware ADS-B
Sun 03:46:07 AM 31.0140 121.8390 171° South 226 260 5,300 2,200 Climbing FlightAware ADS-B
Sun 03:46:27 AM 30.9950 121.8280 206° Southwest 224 258 6,000 1,600 Climbing FlightAware ADS-B
Sun 03:46:37 AM 30.9890 121.8180 235° Southwest 226 260 6,100 750 Climbing FlightAware ADS-B
Sun 03:47:07 AM 30.9780 121.7800 251° West 255 293 6,500 1,050 Climbing FlightAware ADS-B
Sun 03:47:17 AM 30.9750 121.7670 255° West 259 298 6,800 2,571 Climbing FlightAware ADS-B
Sun 03:47:42 AM 30.9670 121.7330 255° West 266 306 8,000 2,667 Climbing FlightAware ADS-B
Sun 03:48:02 AM 30.9740 121.7050 286° West 278 320 8,800 2,533 Climbing FlightAware ADS-B
Sun 03:48:27 AM 30.9880 121.6730 297° West 278 320 9,900 2,400 Climbing FlightAware ADS-B
Sun 03:49:12 AM 31.0150 121.6070 296° West 300 345 11,600 2,541 Climbing FlightAware ADS-B
Sun 03:49:52 AM 31.0390 121.5490 296° West 290 334 13,500 2,400 Climbing FlightAware ADS-B
Sun 03:50:27 AM 31.0590 121.4980 295° West 306 352 14,600 1,800 Climbing FlightAware ADS-B
Sun 03:51:12 AM 31.0860 121.4310 295° West 320 368 15,900 1,976 Climbing FlightAware ADS-B
Sun 03:51:52 AM 31.1140 121.3650 296° West 326 375 17,400 2,123 Climbing FlightAware ADS-B
Sun 03:52:17 AM 31.1350 121.3340 308° West 332 382 18,200 971 Climbing FlightAware ADS-B
Sun 03:53:00 AM 31.1890 121.2960 329° Northwest 339 390 18,500 1,125 Climbing FlightAware ADS-B
Sun 03:53:37 AM 31.2510 121.2540 330° Northwest 390 449 19,700 935 Climbing FlightAware ADS-B
Sun 03:54:17 AM 31.3160 121.2100 330° Northwest 394 453 19,700  Level FlightAware ADS-B
Sun 03:55:02 AM 31.3890 121.1590 329° Northwest 398 458 19,700 847 Level FlightAware ADS-B
Sun 03:55:42 AM 31.4550 121.1150 330° Northwest 402 463 20,900 2,025 Climbing FlightAware ADS-B
Sun 03:56:22 AM 31.5220 121.0790 335° Northwest 403 464 22,400 2,329 Climbing FlightAware ADS-B
Sun 03:57:07 AM 31.5920 121.0420 336° Northwest 388 447 24,200 2,047 Climbing FlightAware ADS-B
Sun 03:57:47 AM 31.6640 121.0030 335° Northwest 388 447 25,300 1,041 Climbing FlightAware ADS-B
Sun 03:58:45 AM 31.7470 120.9580 335° Northwest 390 449 25,900 379 Climbing FlightAware ADS-B
Sun 03:59:22 AM 31.7980 120.9300 335° Northwest 390 449 25,900  Level FlightAware ADS-B
Sun 03:59:56 AM 31.8460 120.9040 335° Northwest 390 449 25,900  Level FlightAware ADS-B
Sun 04:01:21 AM 31.9640 120.8390 335° Northwest 390 449 25,900  Level FlightAware ADS-B
Sun 04:01:57 AM 32.0140 120.8120 335° Northwest 390 449 25,900 3,035 Level FlightAware ADS-B
Sun 04:04:00 AM 32.0423 120.5703 278° West  Level Estimated
Sun 04:04:11 AM 32.1830 120.5620 278° West 386 444 34,500  Level FlightAware ADS-B
Sun 04:05:30 AM 32.1970 120.4090 276° West 387 445 35,100 615 Climbing FlightAware ADS-B
Sun 04:06:08 AM 32.2060 120.3220 277° West 402 463 35,700 486 Climbing FlightAware ADS-B
Sun 04:06:44 AM 32.2120 120.2550 276° West 402 463 35,700  Level FlightAware ADS-B
Sun 04:07:22 AM 32.2180 120.1850 276° West 402 463 35,700 414 Level FlightAware ADS-B
Sun 04:07:42 AM 32.2130 120.0970 266° West 427 491 36,100 436 Climbing FlightAware ADS-B
Sun 04:08:17 AM 32.1830 120.0190 246° West 432 497 36,100  Level FlightAware ADS-B
Sun 04:08:57 AM 32.1440 119.9370 241° Southwest 431 496 36,100  Level FlightAware ADS-B
Sun 04:09:37 AM 32.1070 119.8560 242° Southwest 428 493 36,100  Level FlightAware ADS-B
Sun 04:10:17 AM 32.0760 119.7760 245° Southwest 427 491 36,100  Level FlightAware ADS-B
Sun 04:10:57 AM 32.0610 119.6760 260° West 427 491 36,100  Level FlightAware ADS-B
Sun 04:11:42 AM 32.0520 119.5730 264° West 429 494 36,100  Level FlightAware ADS-B
Sun 04:12:27 AM 32.0410 119.4680 263° West 431 496 36,100  Level FlightAware ADS-B
Sun 04:13:07 AM 32.0330 119.3750 264° West 431 496 36,100  Level FlightAware ADS-B
Sun 04:13:47 AM 32.0250 119.2810 264° West 429 494 36,100 75 Level FlightAware ADS-B
Sun 04:14:27 AM 32.0370 119.1950 279° West 428 493 36,200  Climbing FlightAware ADS-B
Sun 04:15:38 AM 32.1030 119.0480 298° West 427 491 36,100 -50 Descending FlightAware ADS-B
Sun 04:16:27 AM 32.1620 118.9560 307° West 432 497 36,100  Level FlightAware ADS-B
Sun 04:17:07 AM 32.2110 118.8770 306° West 429 494 36,100  Level FlightAware ADS-B
Sun 04:17:47 AM 32.2610 118.8030 309° West 437 503 36,100  Level FlightAware ADS-B
Sun 04:18:32 AM 32.3180 118.7160 308° West 433 498 36,100  Level FlightAware ADS-B
Sun 04:19:15 AM 32.3640 118.6370 305° West 433 498 36,100  Level FlightAware ADS-B
Sun 04:19:55 AM 32.4060 118.5540 301° West 440 506 36,100  Level FlightAware ADS-B
Sun 04:20:40 AM 32.4530 118.4550 299° West 438 504 36,100  Level FlightAware ADS-B
Sun 04:21:20 AM 32.4690 118.3650 282° West 440 506 36,100  Level FlightAware ADS-B
Sun 04:21:55 AM 32.4830 118.2860 282° West 439 505 36,100  Level FlightAware ADS-B
Sun 04:22:35 AM 32.4990 118.1900 281° West 439 505 36,100  Level FlightAware ADS-B
Sun 04:23:20 AM 32.5180 118.0780 281° West 440 506 36,100  Level FlightAware ADS-B
Sun 04:24:19 AM 32.5370 117.9600 281° West 440 506 36,100  Level FlightAware ADS-B
Sun 04:24:55 AM 32.5490 117.8870 281° West 440 506 36,100  Level FlightAware ADS-B
Sun 04:25:43 AM 32.5650 117.7910 281° West 440 506 36,100  Level FlightAware ADS-B
Sun 04:26:19 AM 32.5770 117.7180 281° West 440 506 36,100  Level FlightAware ADS-B
Sun 04:27:18 AM 32.5960 117.5990 281° West 440 506 36,100  Level FlightAware ADS-B
Sun 04:27:56 AM 32.6090 117.5230 281° West 440 506 36,100  Level FlightAware ADS-B
Sun 04:28:44 AM 32.6250 117.4260 281° West 440 506 36,100  Level FlightAware ADS-B
Sun 04:29:18 AM 32.6360 117.3570 281° West 440 506 36,100  Level FlightAware ADS-B
Sun 04:30:08 AM 32.6520 117.2560 281° West 440 506 36,100  Level FlightAware ADS-B
Sun 04:30:42 AM 32.6640 117.1880 282° West 440 506 36,100  Level FlightAware ADS-B
Sun 04:31:31 AM 32.6800 117.0890 281° West 440 506 36,100  Level FlightAware ADS-B
Sun 04:32:09 AM 32.6920 117.0120 281° West 440 506 36,100  Level FlightAware ADS-B
Sun 04:32:57 AM 32.7080 116.9150 281° West 440 506 36,100  Level FlightAware ADS-B
Sun 04:35:00 AM 32.7235 116.6698 274° West  Level Estimated
Sun 04:36:00 AM 32.7309 116.5501 274° West  Level Estimated
Sun 04:37:00 AM 32.7381 116.4305 274° West  Level Estimated
Sun 04:38:00 AM 32.7453 116.3108 274° West  Level Estimated
Sun 04:39:00 AM 32.7523 116.1911 274° West  Level Estimated
Sun 04:40:00 AM 32.7592 116.0714 274° West  Level Estimated
Sun 04:41:00 AM 32.7660 115.9517 274° West  Level Estimated
Sun 04:42:00 AM 32.7727 115.8319 274° West  Level Estimated
Sun 04:43:00 AM 32.7793 115.7121 274° West  Level Estimated
Sun 04:44:00 AM 32.7858 115.5923 274° West  Level Estimated
Sun 04:45:00 AM 32.7921 115.4725 274° West  Level Estimated
Sun 04:46:00 AM 32.7984 115.3527 274° West  Level Estimated
Sun 04:47:00 AM 32.8045 115.2328 274° West  Level Estimated
Sun 04:48:00 AM 32.8105 115.1130 273° West  Level Estimated
Sun 04:49:00 AM 32.8164 114.9931 273° West  Level Estimated
Sun 04:50:00 AM 32.8222 114.8732 273° West  Level Estimated
Sun 04:51:00 AM 32.8279 114.7533 273° West  Level Estimated
Sun 04:52:00 AM 32.8334 114.6334 273° West  Level Estimated
Sun 04:53:00 AM 32.8389 114.5135 273° West  Level Estimated
Sun 04:54:00 AM 32.8442 114.3935 273° West  Level Estimated
Sun 04:55:00 AM 32.8494 114.2735 273° West  Level Estimated
Sun 04:56:00 AM 32.8545 114.1535 273° West  Level Estimated
Sun 04:57:00 AM 32.8595 114.0336 273° West  Level Estimated
Sun 04:58:00 AM 32.8643 113.9136 273° West  Level Estimated
Sun 04:59:00 AM 32.8691 113.7935 273° West  Level Estimated
Sun 05:00:00 AM 32.8737 113.6735 273° West  Level Estimated
Sun 05:01:00 AM 32.8783 113.5535 273° West  Level Estimated
Sun 05:02:00 AM 32.8827 113.4334 273° West  Level Estimated
Sun 05:03:00 AM 32.8870 113.3133 272° West  Level Estimated
Sun 05:04:00 AM 32.8911 113.1933 272° West  Level Estimated
Sun 05:05:00 AM 32.8952 113.0732 272° West  Level Estimated
Sun 05:06:00 AM 32.8992 112.9531 272° West  Level Estimated
Sun 05:07:00 AM 32.9030 112.8329 272° West  Level Estimated
Sun 05:08:00 AM 32.9067 112.7128 272° West  Level Estimated
Sun 05:09:00 AM 32.9103 112.5927 272° West  Level Estimated
Sun 05:10:00 AM 32.9138 112.4726 272° West  Level Estimated
Sun 05:11:00 AM 32.9172 112.3524 272° West  Level Estimated
Sun 05:12:00 AM 32.9204 112.2322 272° West  Level Estimated
Sun 05:13:00 AM 32.9236 112.1121 272° West  Level Estimated
Sun 05:14:00 AM 32.9266 111.9919 272° West  Level Estimated
Sun 05:15:00 AM 32.9296 111.8717 272° West  Level Estimated
Sun 05:16:00 AM 32.9324 111.7515 272° West  Level Estimated
Sun 05:17:00 AM 32.9350 111.6313 272° West  Level Estimated
Sun 05:18:00 AM 32.9376 111.5111 271° West  Level Estimated
Sun 05:19:00 AM 32.9401 111.3909 271° West  Level Estimated
Sun 05:20:00 AM 32.9424 111.2707 271° West  Level Estimated
Sun 05:21:00 AM 32.9446 111.1505 271° West  Level Estimated
Sun 05:22:00 AM 32.9467 111.0302 271° West  Level Estimated
Sun 05:23:00 AM 32.9487 110.9100 271° West  Level Estimated
Sun 05:24:00 AM 32.9506 110.7897 271° West  Level Estimated
Sun 05:25:00 AM 32.9524 110.6695 271° West  Level Estimated
Sun 05:26:00 AM 32.9540 110.5492 271° West  Level Estimated
Sun 05:27:00 AM 32.9556 110.4290 271° West  Level Estimated
Sun 05:28:00 AM 32.9570 110.3087 271° West  Level Estimated
Sun 05:29:00 AM 32.9583 110.1885 271° West  Level Estimated
Sun 05:30:00 AM 32.9595 110.0682 271° West  Level Estimated
Sun 05:31:00 AM 32.9605 109.9479 271° West  Level Estimated
Sun 05:32:00 AM 32.9615 109.8276 271° West  Level Estimated
Sun 05:33:00 AM 32.9623 109.7074 271° West  Level Estimated
Sun 05:34:00 AM 32.9631 109.5871 270° West  Level Estimated
Sun 05:35:00 AM 32.9637 109.4668 270° West  Level Estimated
Sun 05:36:00 AM 32.9642 109.3465 270° West  Level Estimated
Sun 05:37:00 AM 32.9646 109.2262 270° West  Level Estimated
Sun 05:38:00 AM 32.9648 109.1059 270° West  Level Estimated
Sun 05:39:00 AM 32.9650 108.9856 270° West  Level Estimated
Sun 05:40:00 AM 32.9650 108.8654 270° West  Level Estimated
Sun 05:41:00 AM 32.9649 108.7451 270° West  Level Estimated
Sun 05:42:00 AM 32.9647 108.6248 270° West  Level Estimated
Sun 05:43:00 AM 32.9644 108.5045 270° West  Level Estimated
Sun 05:44:00 AM 32.9640 108.3842 270° West  Level Estimated
Sun 05:45:00 AM 32.9635 108.2639 270° West  Level Estimated
Sun 05:46:00 AM 32.9628 108.1437 270° West  Level Estimated
Sun 05:47:00 AM 32.9620 108.0234 270° West  Level Estimated
Sun 05:48:00 AM 32.9611 107.9031 270° West  Level Estimated
Sun 05:49:00 AM 32.9601 107.7828 269° West  Level Estimated
Sun 05:50:00 AM 32.9590 107.6626 269° West  Level Estimated
Sun 05:51:00 AM 32.9578 107.5423 269° West  Level Estimated
Sun 05:52:00 AM 32.9564 107.4220 269° West  Level Estimated
Sun 05:53:00 AM 32.9550 107.3018 269° West  Level Estimated
Sun 05:54:00 AM 32.9534 107.1815 269° West  Level Estimated
Sun 05:55:00 AM 32.9517 107.0613 269° West  Level Estimated
Sun 05:56:00 AM 32.9499 106.9410 269° West  Level Estimated
Sun 05:57:00 AM 32.9480 106.8208 269° West  Level Estimated
Sun 05:58:00 AM 32.9459 106.7005 269° West  Level Estimated
Sun 05:59:00 AM 32.9438 106.5803 269° West  Level Estimated
Sun 06:00:00 AM 32.9415 106.4601 269° West  Level Estimated
Sun 06:01:00 AM 32.9391 106.3399 269° West  Level Estimated
Sun 06:02:00 AM 32.9366 106.2196 269° West  Level Estimated
Sun 06:03:00 AM 32.9340 106.0994 269° West  Level Estimated
Sun 06:04:00 AM 32.9313 105.9792 268° West  Level Estimated
Sun 06:05:00 AM 32.9285 105.8590 268° West  Level Estimated
Sun 06:06:00 AM 32.9255 105.7389 268° West  Level Estimated
Sun 06:07:00 AM 32.9224 105.6187 268° West  Level Estimated
Sun 06:08:00 AM 32.9192 105.4985 268° West  Level Estimated
Sun 06:09:00 AM 32.9159 105.3784 268° West  Level Estimated
Sun 06:10:00 AM 32.9125 105.2582 268° West  Level Estimated
Sun 06:11:00 AM 32.9090 105.1381 268° West  Level Estimated
Sun 06:12:00 AM 32.9053 105.0179 268° West  Level Estimated
Sun 06:13:00 AM 32.9015 104.8962 268° West  Level Estimated
Sun 06:14:00 AM 32.8976 104.7745 268° West  Level Estimated
Sun 06:15:00 AM 32.8935 104.6528 268° West  Level Estimated
Sun 06:16:00 AM 32.8894 104.5312 268° West  Level Estimated
Sun 06:17:00 AM 32.8851 104.4095 268° West  Level Estimated
Sun 06:18:00 AM 32.8807 104.2878 268° West  Level Estimated
Sun 06:19:00 AM 32.8761 104.1662 267° West  Level Estimated
Sun 06:20:00 AM 32.8715 104.0446 267° West  Level Estimated
Sun 06:21:00 AM 32.8667 103.9230 267° West  Level Estimated
Sun 06:22:00 AM 32.8619 103.8014 267° West  Level Estimated
Sun 06:23:00 AM 32.8570 103.6830 267° West  Level Estimated
Sun 06:24:00 AM 32.8570 103.6830 North  Level Estimated
Sun 06:25:00 AM 32.8570 103.6830 North  Level Estimated
Sun 06:26:00 AM 32.8570 103.6830 North  Level Estimated
Sun 06:27:00 AM 32.8570 103.6830 North  Level Estimated
Sun 06:28:00 AM 32.8570 103.6830 North  Level Estimated
Sun 06:29:00 AM 32.8570 103.6830 North  Level Estimated
Sun 06:30:00 AM 32.8570 103.6830 North  Level Estimated

Login

Don't have an account? Register now (free) for customized features, flight alerts, and more!